sensor_id;sensor_type;location;lat;lon;timestamp;pressure;altitude;pressure_sealevel;temperature;humidity
71903;BME280;59778;50.310;18.780;2023-05-01T00:08:53;99286.13;;;5.27;80.90
71903;BME280;59778;50.310;18.780;2023-05-01T00:24:14;99279.63;;;4.92;82.68
71903;BME280;59778;50.310;18.780;2023-05-01T00:39:37;99267.03;;;4.46;85.23
71903;BME280;59778;50.310;18.780;2023-05-01T00:54:58;99262.97;;;4.13;86.19
71903;BME280;59778;50.310;18.780;2023-05-01T01:10:34;99266.91;;;4.09;86.48
71903;BME280;59778;50.310;18.780;2023-05-01T01:41:39;99243.00;;;3.68;87.27
71903;BME280;59778;50.310;18.780;2023-05-01T01:57:02;99220.09;;;3.45;88.77
71903;BME280;59778;50.310;18.780;2023-05-01T02:12:25;99200.16;;;3.38;87.44
71903;BME280;59778;50.310;18.780;2023-05-01T02:27:52;99209.56;;;3.13;88.79
71903;BME280;59778;50.310;18.780;2023-05-01T02:43:19;99204.59;;;2.99;91.53
71903;BME280;59778;50.310;18.780;2023-05-01T02:58:41;99200.13;;;3.28;88.64
71903;BME280;59778;50.310;18.780;2023-05-01T03:14:02;99201.91;;;2.99;89.08
71903;BME280;59778;50.310;18.780;2023-05-01T03:29:23;99193.34;;;3.14;87.00
71903;BME280;59778;50.310;18.780;2023-05-01T03:44:44;99195.41;;;2.92;89.41
71903;BME280;59778;50.310;18.780;2023-05-01T04:00:06;99170.09;;;2.84;90.41
71903;BME280;59778;50.310;18.780;2023-05-01T04:15:28;99163.78;;;3.05;90.53
71903;BME280;59778;50.310;18.780;2023-05-01T04:30:50;99173.75;;;3.52;91.16
71903;BME280;59778;50.310;18.780;2023-05-01T04:46:12;99176.78;;;4.24;88.99
71903;BME280;59778;50.310;18.780;2023-05-01T05:01:33;99170.03;;;5.12;86.38
71903;BME280;59778;50.310;18.780;2023-05-01T05:16:54;99166.06;;;6.04;85.56
71903;BME280;59778;50.310;18.780;2023-05-01T05:32:16;99158.91;;;7.06;75.94
71903;BME280;59778;50.310;18.780;2023-05-01T05:47:37;99152.97;;;8.01;68.41
71903;BME280;59778;50.310;18.780;2023-05-01T06:02:59;99155.19;;;8.85;62.38
71903;BME280;59778;50.310;18.780;2023-05-01T06:18:20;99150.72;;;9.85;60.28
71903;BME280;59778;50.310;18.780;2023-05-01T06:33:41;99153.00;;;10.56;53.61
71903;BME280;59778;50.310;18.780;2023-05-01T06:49:03;99147.22;;;11.39;52.44
71903;BME280;59778;50.310;18.780;2023-05-01T07:04:24;99130.13;;;12.23;46.53
71903;BME280;59778;50.310;18.780;2023-05-01T07:19:45;99135.06;;;12.41;44.09
71903;BME280;59778;50.310;18.780;2023-05-01T07:35:07;99126.88;;;13.03;41.60
71903;BME280;59778;50.310;18.780;2023-05-01T07:50:28;99119.78;;;13.63;40.64
71903;BME280;59778;50.310;18.780;2023-05-01T08:05:50;99111.03;;;14.59;40.31
71903;BME280;59778;50.310;18.780;2023-05-01T08:21:11;99100.78;;;15.19;38.54
71903;BME280;59778;50.310;18.780;2023-05-01T08:36:33;99101.13;;;15.36;36.90
71903;BME280;59778;50.310;18.780;2023-05-01T08:51:55;99097.63;;;15.67;35.51
71903;BME280;59778;50.310;18.780;2023-05-01T09:07:18;99077.50;;;16.60;36.18
71903;BME280;59778;50.310;18.780;2023-05-01T09:22:39;99053.28;;;17.12;34.81
71903;BME280;59778;50.310;18.780;2023-05-01T09:38:01;99040.47;;;17.24;31.54
71903;BME280;59778;50.310;18.780;2023-05-01T09:53:38;99034.31;;;18.11;30.11
71903;BME280;59778;50.310;18.780;2023-05-01T10:08:59;99027.75;;;18.01;28.49
71903;BME280;59778;50.310;18.780;2023-05-01T10:24:20;99013.66;;;18.09;24.96
71903;BME280;59778;50.310;18.780;2023-05-01T10:39:42;98997.63;;;18.75;26.09
71903;BME280;59778;50.310;18.780;2023-05-01T10:55:35;98985.13;;;19.24;25.98
71903;BME280;59778;50.310;18.780;2023-05-01T11:10:56;98963.53;;;19.61;22.80
71903;BME280;59778;50.310;18.780;2023-05-01T11:26:18;98931.03;;;20.13;23.73
71903;BME280;59778;50.310;18.780;2023-05-01T11:41:42;98920.53;;;21.99;27.25
71903;BME280;59778;50.310;18.780;2023-05-01T11:57:04;98897.72;;;21.87;25.18
71903;BME280;59778;50.310;18.780;2023-05-01T12:12:25;98863.28;;;22.47;26.34
71903;BME280;59778;50.310;18.780;2023-05-01T12:27:46;98860.88;;;22.14;28.79
71903;BME280;59778;50.310;18.780;2023-05-01T12:43:08;98845.97;;;22.82;28.84
71903;BME280;59778;50.310;18.780;2023-05-01T12:58:36;98824.69;;;23.08;30.07
71903;BME280;59778;50.310;18.780;2023-05-01T13:14:05;98791.09;;;24.15;27.31
71903;BME280;59778;50.310;18.780;2023-05-01T13:29:28;98774.81;;;23.68;26.68
71903;BME280;59778;50.310;18.780;2023-05-01T13:44:53;98749.09;;;23.42;27.70
71903;BME280;59778;50.310;18.780;2023-05-01T14:00:16;98740.81;;;24.22;29.19
71903;BME280;59778;50.310;18.780;2023-05-01T14:15:40;98729.50;;;24.67;27.81
71903;BME280;59778;50.310;18.780;2023-05-01T14:31:03;98706.53;;;23.92;26.31
71903;BME280;59778;50.310;18.780;2023-05-01T14:46:33;98693.81;;;23.71;26.26
71903;BME280;59778;50.310;18.780;2023-05-01T15:01:55;98682.81;;;22.55;28.50
71903;BME280;59778;50.310;18.780;2023-05-01T15:17:16;98663.91;;;23.63;28.60
71903;BME280;59778;50.310;18.780;2023-05-01T15:32:38;98651.25;;;23.01;28.52
71903;BME280;59778;50.310;18.780;2023-05-01T15:47:59;98641.00;;;24.51;26.47
71903;BME280;59778;50.310;18.780;2023-05-01T16:03:21;98644.03;;;22.55;29.30
71903;BME280;59778;50.310;18.780;2023-05-01T16:18:42;98624.28;;;20.97;30.09
71903;BME280;59778;50.310;18.780;2023-05-01T16:34:04;98629.16;;;20.21;31.03
71903;BME280;59778;50.310;18.780;2023-05-01T16:49:26;98621.25;;;19.81;31.25
71903;BME280;59778;50.310;18.780;2023-05-01T17:04:48;98620.34;;;18.94;32.00
71903;BME280;59778;50.310;18.780;2023-05-01T17:20:10;98607.84;;;18.19;32.82
71903;BME280;59778;50.310;18.780;2023-05-01T17:35:31;98617.06;;;17.57;34.48
71903;BME280;59778;50.310;18.780;2023-05-01T17:50:53;98626.13;;;17.06;36.26
71903;BME280;59778;50.310;18.780;2023-05-01T18:06:15;98629.19;;;16.51;37.74
71903;BME280;59778;50.310;18.780;2023-05-01T18:21:37;98625.28;;;16.17;38.66
71903;BME280;59778;50.310;18.780;2023-05-01T18:36:58;98623.00;;;15.73;39.85
71903;BME280;59778;50.310;18.780;2023-05-01T18:52:20;98635.38;;;15.09;41.13
71903;BME280;59778;50.310;18.780;2023-05-01T19:07:41;98633.59;;;15.15;40.62
71903;BME280;59778;50.310;18.780;2023-05-01T19:23:02;98627.97;;;15.09;41.12
71903;BME280;59778;50.310;18.780;2023-05-01T19:38:24;98629.66;;;14.92;40.77
71903;BME280;59778;50.310;18.780;2023-05-01T19:53:46;98639.59;;;14.62;43.19
71903;BME280;59778;50.310;18.780;2023-05-01T20:09:07;98645.59;;;14.21;45.15
71903;BME280;59778;50.310;18.780;2023-05-01T20:24:29;98647.50;;;13.89;45.13
71903;BME280;59778;50.310;18.780;2023-05-01T20:39:51;98643.50;;;13.54;47.74
71903;BME280;59778;50.310;18.780;2023-05-01T20:55:13;98666.50;;;13.13;51.77
71903;BME280;59778;50.310;18.780;2023-05-01T21:10:34;98664.63;;;13.01;51.96
71903;BME280;59778;50.310;18.780;2023-05-01T21:25:57;98660.91;;;12.62;55.04
71903;BME280;59778;50.310;18.780;2023-05-01T21:41:19;98673.91;;;12.27;57.82
71903;BME280;59778;50.310;18.780;2023-05-01T21:56:41;98679.16;;;12.16;59.12
71903;BME280;59778;50.310;18.780;2023-05-01T22:12:02;98676.16;;;11.98;59.43
71903;BME280;59778;50.310;18.780;2023-05-01T22:27:24;98678.28;;;12.02;58.95
71903;BME280;59778;50.310;18.780;2023-05-01T22:42:45;98683.72;;;11.96;58.33
71903;BME280;59778;50.310;18.780;2023-05-01T22:58:07;98682.88;;;11.95;58.78
71903;BME280;59778;50.310;18.780;2023-05-01T23:13:28;98672.78;;;11.82;59.51
71903;BME280;59778;50.310;18.780;2023-05-01T23:28:52;98676.63;;;11.54;61.80
71903;BME280;59778;50.310;18.780;2023-05-01T23:44:13;98665.28;;;11.37;62.53
71903;BME280;59778;50.310;18.780;2023-05-01T23:59:35;98662.06;;;11.14;63.95
